Newcastle Airport
YWLM : now visible

Airfield :











YOU CAN JOIN US ON...

 
LOGIN :

Register | Disclaimer

   EN    FR    IT 

 









Legend :    VFR   Marginal VFR   IFR   Intensive IFR   Very Intensive IFR
Visi :
Ceiling :
>= 8 km
>= 3000ft
5 to 8 km
1000 to 3000 ft
1500m to 5 km
500 to 1000 ft
800 to 1500m
200 to 500 ft
< 800m
< 200 ft
Symbols :   Thunderstorms  Fog  Heavy snow  Heavy precipitations  Wind > 20 kt






- Airport Elevation : 31 ft
- IATA code : NTL


YWLM - Newcastle

CURRENT METAR :
  • 042100Z 27010KT 9999 FEW025 19/12 Q1006

EXPIRED METARs :
  • 042030Z 28010KT 9999 FEW025 17/12 Q1006
  • 042000Z 30009KT CAVOK 16/13 Q1005
  • 041930Z AUTO 29009KT 9999 // NCD 16/13 Q1005
  • 041900Z AUTO 30009KT 9999 // NCD 16/14 Q1005
  • 041830Z AUTO 30007KT 9999 // NCD 16/14 Q1005

TAF AMD TAF YWLM
Valid from the 04 at 21:00 until the 05 at 18:00 UTC


042015Z 0421/0518 29010KT CAVOK
FM042300 20014KT 9999 SCT025
BECMG 0500/0501 17018G28KT 9999 -SHRA FEW015 BKN020
FM050800 18010KT 9999 NSW SCT025 BKN035
FM051200 16005KT 9999 -SHRA SCT020 BKN030 INTER 0500/0505 4000 SHRA BKN010
YBBB FIR / Oceania



MET'MAP, your aeronautical weather chart ! - Copyright ORBIFLY December 2007 - Disclaimer

ORBIFLY MET'MAP TEAM :

Programming & Development : Alexandra Zaïnal
Concept & original design : Baudouin d'Aumeries
Assistance for programming : Marc-Olivier Méhu
Technical & hardware support : Manuel Goepfert

Contact : metmap@orbifly.com




SOURCES & CREDITS :

   NOAA       Earth
Advisory